Terminal Aerodrome Forecast
Issued by NWS

Home | Current Version | Previous Version | Text Only | Print | Product List | Glossary On
Versions: 1 2 3 4 5 6 7 8 9 10 11 12 13 14 15 16 17 18 19 20 21 22 23 24 25
000
FTUS43 KDVN 251151
TAFBRL
TAF
KBRL 251151Z 2512/2612 23011KT P6SM VCSH BKN035 OVC080
      TEMPO 2512/2514 5SM -SHRA BR SCT015 OVC030
     FM251500 23014G22KT P6SM SCT025 BKN040
     FM252300 21012KT P6SM SCT040 BKN250
     FM260400 18008KT P6SM BKN050 PROB30 2609/2612 5SM SHRA BKN030=

USA.gov is the U.S. government's official web portal to all federal, state and local government web resources and services.